sensor_id;sensor_type;location;lat;lon;timestamp;temperature;humidity
36990;DHT22;22898;52.102;5.776;2024-03-08T00:02:00;8.80;99.90
36990;DHT22;22898;52.102;5.776;2024-03-08T00:04:25;8.50;99.90
36990;DHT22;22898;52.102;5.776;2024-03-08T00:06:51;8.60;99.90
36990;DHT22;22898;52.102;5.776;2024-03-08T00:09:16;8.60;99.90
36990;DHT22;22898;52.102;5.776;2024-03-08T00:11:42;8.60;99.90
36990;DHT22;22898;52.102;5.776;2024-03-08T00:14:08;8.70;99.90
36990;DHT22;22898;52.102;5.776;2024-03-08T00:16:33;8.60;99.90
36990;DHT22;22898;52.102;5.776;2024-03-08T00:19:00;8.60;99.90
36990;DHT22;22898;52.102;5.776;2024-03-08T00:21:26;8.60;99.90
36990;DHT22;22898;52.102;5.776;2024-03-08T00:23:53;8.70;99.90
36990;DHT22;22898;52.102;5.776;2024-03-08T00:26:20;8.50;99.90
36990;DHT22;22898;52.102;5.776;2024-03-08T00:28:48;8.40;99.90
36990;DHT22;22898;52.102;5.776;2024-03-08T00:31:14;8.50;99.90
36990;DHT22;22898;52.102;5.776;2024-03-08T00:33:41;8.50;99.90
36990;DHT22;22898;52.102;5.776;2024-03-08T00:36:06;8.60;99.90
36990;DHT22;22898;52.102;5.776;2024-03-08T00:38:33;8.50;99.90
36990;DHT22;22898;52.102;5.776;2024-03-08T00:40:59;8.60;99.90
36990;DHT22;22898;52.102;5.776;2024-03-08T00:43:25;8.70;99.90
36990;DHT22;22898;52.102;5.776;2024-03-08T00:45:51;8.80;99.90
36990;DHT22;22898;52.102;5.776;2024-03-08T00:48:17;8.90;99.90
36990;DHT22;22898;52.102;5.776;2024-03-08T00:50:42;8.80;99.90
36990;DHT22;22898;52.102;5.776;2024-03-08T00:53:11;8.60;99.90
36990;DHT22;22898;52.102;5.776;2024-03-08T00:55:37;8.60;99.90
36990;DHT22;22898;52.102;5.776;2024-03-08T00:58:06;8.40;99.90
36990;DHT22;22898;52.102;5.776;2024-03-08T01:00:34;8.20;99.90
36990;DHT22;22898;52.102;5.776;2024-03-08T01:03:00;8.10;99.90
36990;DHT22;22898;52.102;5.776;2024-03-08T01:05:25;8.00;99.90
36990;DHT22;22898;52.102;5.776;2024-03-08T01:07:51;7.90;99.90
36990;DHT22;22898;52.102;5.776;2024-03-08T01:10:17;8.00;99.90
36990;DHT22;22898;52.102;5.776;2024-03-08T01:12:42;7.90;99.90
36990;DHT22;22898;52.102;5.776;2024-03-08T01:15:11;8.20;99.90
36990;DHT22;22898;52.102;5.776;2024-03-08T01:17:37;8.30;99.90
36990;DHT22;22898;52.102;5.776;2024-03-08T01:20:03;8.30;99.90
36990;DHT22;22898;52.102;5.776;2024-03-08T01:22:29;8.20;99.90
36990;DHT22;22898;52.102;5.776;2024-03-08T01:24:58;8.30;99.90
36990;DHT22;22898;52.102;5.776;2024-03-08T01:27:24;8.20;99.90
36990;DHT22;22898;52.102;5.776;2024-03-08T01:29:50;8.00;99.90
36990;DHT22;22898;52.102;5.776;2024-03-08T01:32:16;8.00;99.90
36990;DHT22;22898;52.102;5.776;2024-03-08T01:34:42;8.20;99.90
36990;DHT22;22898;52.102;5.776;2024-03-08T01:37:07;7.90;99.90
36990;DHT22;22898;52.102;5.776;2024-03-08T01:39:33;7.70;99.90
36990;DHT22;22898;52.102;5.776;2024-03-08T01:41:59;7.70;99.90
36990;DHT22;22898;52.102;5.776;2024-03-08T01:44:26;7.40;99.90
36990;DHT22;22898;52.102;5.776;2024-03-08T01:46:52;7.60;99.90
36990;DHT22;22898;52.102;5.776;2024-03-08T01:49:20;7.70;99.90
36990;DHT22;22898;52.102;5.776;2024-03-08T01:51:50;7.60;99.90
36990;DHT22;22898;52.102;5.776;2024-03-08T01:54:17;7.90;99.90
36990;DHT22;22898;52.102;5.776;2024-03-08T01:56:43;8.10;99.90
36990;DHT22;22898;52.102;5.776;2024-03-08T01:59:09;7.70;99.90
36990;DHT22;22898;52.102;5.776;2024-03-08T02:01:35;7.50;99.90
36990;DHT22;22898;52.102;5.776;2024-03-08T02:04:01;7.70;99.90
36990;DHT22;22898;52.102;5.776;2024-03-08T02:06:26;7.70;99.90
36990;DHT22;22898;52.102;5.776;2024-03-08T02:08:52;7.70;99.90
36990;DHT22;22898;52.102;5.776;2024-03-08T02:11:18;7.40;99.90
36990;DHT22;22898;52.102;5.776;2024-03-08T02:13:46;7.60;99.90
36990;DHT22;22898;52.102;5.776;2024-03-08T02:16:12;7.50;99.90
36990;DHT22;22898;52.102;5.776;2024-03-08T02:18:37;7.60;99.90
36990;DHT22;22898;52.102;5.776;2024-03-08T02:21:05;7.80;99.90
36990;DHT22;22898;52.102;5.776;2024-03-08T02:23:32;7.80;99.90
36990;DHT22;22898;52.102;5.776;2024-03-08T02:25:58;7.80;99.90
36990;DHT22;22898;52.102;5.776;2024-03-08T02:28:24;7.60;99.90
36990;DHT22;22898;52.102;5.776;2024-03-08T02:30:53;7.40;99.90
36990;DHT22;22898;52.102;5.776;2024-03-08T02:33:22;7.10;99.90
36990;DHT22;22898;52.102;5.776;2024-03-08T02:35:48;7.30;99.90
36990;DHT22;22898;52.102;5.776;2024-03-08T02:38:15;7.40;99.90
36990;DHT22;22898;52.102;5.776;2024-03-08T02:40:47;7.40;99.90
36990;DHT22;22898;52.102;5.776;2024-03-08T02:43:14;7.10;99.90
36990;DHT22;22898;52.102;5.776;2024-03-08T02:45:40;6.90;99.90
36990;DHT22;22898;52.102;5.776;2024-03-08T02:48:08;7.10;99.90
36990;DHT22;22898;52.102;5.776;2024-03-08T02:50:34;7.10;99.90
36990;DHT22;22898;52.102;5.776;2024-03-08T02:53:03;6.80;99.90
36990;DHT22;22898;52.102;5.776;2024-03-08T02:55:29;6.90;99.90
36990;DHT22;22898;52.102;5.776;2024-03-08T02:57:55;7.20;99.90
36990;DHT22;22898;52.102;5.776;2024-03-08T03:00:21;7.20;99.90
36990;DHT22;22898;52.102;5.776;2024-03-08T03:02:51;7.30;99.90
36990;DHT22;22898;52.102;5.776;2024-03-08T03:05:20;7.20;99.90
36990;DHT22;22898;52.102;5.776;2024-03-08T03:07:45;7.10;99.90
36990;DHT22;22898;52.102;5.776;2024-03-08T03:10:11;7.00;99.90
36990;DHT22;22898;52.102;5.776;2024-03-08T03:12:44;7.00;99.90
36990;DHT22;22898;52.102;5.776;2024-03-08T03:15:13;7.10;99.90
36990;DHT22;22898;52.102;5.776;2024-03-08T03:17:39;7.20;99.90
36990;DHT22;22898;52.102;5.776;2024-03-08T03:20:08;7.20;99.90
36990;DHT22;22898;52.102;5.776;2024-03-08T03:22:40;7.30;99.90
36990;DHT22;22898;52.102;5.776;2024-03-08T03:25:12;7.50;99.90
36990;DHT22;22898;52.102;5.776;2024-03-08T03:27:38;7.40;99.90
36990;DHT22;22898;52.102;5.776;2024-03-08T03:30:06;7.40;99.90
36990;DHT22;22898;52.102;5.776;2024-03-08T03:32:50;7.40;99.90
36990;DHT22;22898;52.102;5.776;2024-03-08T03:35:17;7.40;99.90
36990;DHT22;22898;52.102;5.776;2024-03-08T03:37:43;7.00;99.90
36990;DHT22;22898;52.102;5.776;2024-03-08T03:40:16;7.20;99.90
36990;DHT22;22898;52.102;5.776;2024-03-08T03:42:44;7.20;99.90
36990;DHT22;22898;52.102;5.776;2024-03-08T03:45:11;7.40;99.90
36990;DHT22;22898;52.102;5.776;2024-03-08T03:47:36;7.30;99.90
36990;DHT22;22898;52.102;5.776;2024-03-08T03:50:04;7.50;99.90
36990;DHT22;22898;52.102;5.776;2024-03-08T03:52:30;7.30;99.90
36990;DHT22;22898;52.102;5.776;2024-03-08T03:54:56;7.20;99.90
36990;DHT22;22898;52.102;5.776;2024-03-08T03:57:22;7.20;99.90
36990;DHT22;22898;52.102;5.776;2024-03-08T03:59:48;7.30;99.90
36990;DHT22;22898;52.102;5.776;2024-03-08T04:02:14;7.30;99.90
36990;DHT22;22898;52.102;5.776;2024-03-08T04:04:40;7.30;99.90
36990;DHT22;22898;52.102;5.776;2024-03-08T04:07:06;7.10;99.90
36990;DHT22;22898;52.102;5.776;2024-03-08T04:09:32;7.30;99.90
36990;DHT22;22898;52.102;5.776;2024-03-08T04:11:57;7.30;99.90
36990;DHT22;22898;52.102;5.776;2024-03-08T04:14:23;7.50;99.90
36990;DHT22;22898;52.102;5.776;2024-03-08T04:16:49;7.60;99.90
36990;DHT22;22898;52.102;5.776;2024-03-08T04:19:14;7.60;99.90
36990;DHT22;22898;52.102;5.776;2024-03-08T04:21:40;7.70;99.90
36990;DHT22;22898;52.102;5.776;2024-03-08T04:24:06;7.90;99.90
36990;DHT22;22898;52.102;5.776;2024-03-08T04:26:31;7.70;99.90
36990;DHT22;22898;52.102;5.776;2024-03-08T04:28:57;7.60;99.90
36990;DHT22;22898;52.102;5.776;2024-03-08T04:31:23;7.60;99.90
36990;DHT22;22898;52.102;5.776;2024-03-08T04:33:48;7.50;99.90
36990;DHT22;22898;52.102;5.776;2024-03-08T04:36:14;7.60;99.90
36990;DHT22;22898;52.102;5.776;2024-03-08T04:38:40;7.70;99.90
36990;DHT22;22898;52.102;5.776;2024-03-08T04:41:06;7.90;99.90
36990;DHT22;22898;52.102;5.776;2024-03-08T04:43:32;7.80;99.90
36990;DHT22;22898;52.102;5.776;2024-03-08T04:45:58;7.80;99.90
36990;DHT22;22898;52.102;5.776;2024-03-08T04:48:24;7.90;99.90
36990;DHT22;22898;52.102;5.776;2024-03-08T04:50:52;7.90;99.90
36990;DHT22;22898;52.102;5.776;2024-03-08T04:53:19;7.60;99.90
36990;DHT22;22898;52.102;5.776;2024-03-08T04:55:47;7.40;99.90
36990;DHT22;22898;52.102;5.776;2024-03-08T04:58:13;7.60;99.90
36990;DHT22;22898;52.102;5.776;2024-03-08T05:00:39;7.70;99.90
36990;DHT22;22898;52.102;5.776;2024-03-08T05:03:04;7.50;99.90
36990;DHT22;22898;52.102;5.776;2024-03-08T05:05:30;7.50;99.90
36990;DHT22;22898;52.102;5.776;2024-03-08T05:07:56;7.50;99.90
36990;DHT22;22898;52.102;5.776;2024-03-08T05:10:22;7.70;99.90
36990;DHT22;22898;52.102;5.776;2024-03-08T05:12:47;7.90;99.90
36990;DHT22;22898;52.102;5.776;2024-03-08T05:15:13;8.00;99.90
36990;DHT22;22898;52.102;5.776;2024-03-08T05:17:39;7.80;99.90
36990;DHT22;22898;52.102;5.776;2024-03-08T05:20:06;8.00;99.90
36990;DHT22;22898;52.102;5.776;2024-03-08T05:22:33;7.70;99.90
36990;DHT22;22898;52.102;5.776;2024-03-08T05:24:59;7.70;99.90
36990;DHT22;22898;52.102;5.776;2024-03-08T05:27:25;7.60;99.90
36990;DHT22;22898;52.102;5.776;2024-03-08T05:29:50;7.70;99.90
36990;DHT22;22898;52.102;5.776;2024-03-08T05:32:16;7.80;99.90
36990;DHT22;22898;52.102;5.776;2024-03-08T05:34:41;8.00;99.90
36990;DHT22;22898;52.102;5.776;2024-03-08T05:37:08;7.90;99.90
36990;DHT22;22898;52.102;5.776;2024-03-08T05:39:33;8.10;99.90
36990;DHT22;22898;52.102;5.776;2024-03-08T05:41:59;8.20;99.90
36990;DHT22;22898;52.102;5.776;2024-03-08T05:44:25;7.90;99.90
36990;DHT22;22898;52.102;5.776;2024-03-08T05:46:54;7.60;99.90
36990;DHT22;22898;52.102;5.776;2024-03-08T05:49:19;7.60;99.90
36990;DHT22;22898;52.102;5.776;2024-03-08T05:51:46;7.70;99.90
36990;DHT22;22898;52.102;5.776;2024-03-08T05:54:13;7.60;99.90
36990;DHT22;22898;52.102;5.776;2024-03-08T05:56:39;7.70;99.90
36990;DHT22;22898;52.102;5.776;2024-03-08T05:59:09;7.80;99.90
36990;DHT22;22898;52.102;5.776;2024-03-08T06:01:35;7.50;99.90
36990;DHT22;22898;52.102;5.776;2024-03-08T06:04:02;7.60;99.90
36990;DHT22;22898;52.102;5.776;2024-03-08T06:06:29;7.30;99.90
36990;DHT22;22898;52.102;5.776;2024-03-08T06:08:55;7.10;99.90
36990;DHT22;22898;52.102;5.776;2024-03-08T06:11:24;7.00;99.90
36990;DHT22;22898;52.102;5.776;2024-03-08T06:13:52;6.80;99.90
36990;DHT22;22898;52.102;5.776;2024-03-08T06:16:20;6.60;99.90
36990;DHT22;22898;52.102;5.776;2024-03-08T06:18:46;6.20;99.90
36990;DHT22;22898;52.102;5.776;2024-03-08T06:21:12;6.30;99.90
36990;DHT22;22898;52.102;5.776;2024-03-08T06:23:38;6.40;99.90
36990;DHT22;22898;52.102;5.776;2024-03-08T06:26:04;6.30;99.90
36990;DHT22;22898;52.102;5.776;2024-03-08T06:28:30;6.30;99.90
36990;DHT22;22898;52.102;5.776;2024-03-08T06:31:00;6.40;99.90
36990;DHT22;22898;52.102;5.776;2024-03-08T06:33:27;6.30;99.90
36990;DHT22;22898;52.102;5.776;2024-03-08T06:35:53;6.30;99.90
36990;DHT22;22898;52.102;5.776;2024-03-08T06:38:20;6.30;99.90
36990;DHT22;22898;52.102;5.776;2024-03-08T06:40:46;6.30;99.90
36990;DHT22;22898;52.102;5.776;2024-03-08T06:43:14;6.40;99.90
36990;DHT22;22898;52.102;5.776;2024-03-08T06:45:42;6.70;99.90
36990;DHT22;22898;52.102;5.776;2024-03-08T06:48:14;6.90;99.90
36990;DHT22;22898;52.102;5.776;2024-03-08T06:50:40;6.70;99.90
36990;DHT22;22898;52.102;5.776;2024-03-08T06:53:05;6.90;99.90
36990;DHT22;22898;52.102;5.776;2024-03-08T06:55:31;6.80;99.90
36990;DHT22;22898;52.102;5.776;2024-03-08T06:57:58;6.70;99.90
36990;DHT22;22898;52.102;5.776;2024-03-08T07:00:24;6.80;99.90
36990;DHT22;22898;52.102;5.776;2024-03-08T07:02:52;6.60;99.90
36990;DHT22;22898;52.102;5.776;2024-03-08T07:05:19;6.30;99.90
36990;DHT22;22898;52.102;5.776;2024-03-08T07:07:45;6.60;99.90
36990;DHT22;22898;52.102;5.776;2024-03-08T07:10:14;6.80;99.90
36990;DHT22;22898;52.102;5.776;2024-03-08T07:12:41;7.00;99.90
36990;DHT22;22898;52.102;5.776;2024-03-08T07:15:07;7.00;99.90
36990;DHT22;22898;52.102;5.776;2024-03-08T07:17:33;7.00;99.90
36990;DHT22;22898;52.102;5.776;2024-03-08T07:20:00;7.20;99.90
36990;DHT22;22898;52.102;5.776;2024-03-08T07:22:32;7.00;99.90
36990;DHT22;22898;52.102;5.776;2024-03-08T07:24:58;7.20;99.90
36990;DHT22;22898;52.102;5.776;2024-03-08T07:27:36;7.20;99.90
36990;DHT22;22898;52.102;5.776;2024-03-08T07:30:02;7.30;99.90
36990;DHT22;22898;52.102;5.776;2024-03-08T07:32:28;7.20;99.90
36990;DHT22;22898;52.102;5.776;2024-03-08T07:34:55;7.20;99.90
36990;DHT22;22898;52.102;5.776;2024-03-08T07:37:21;7.20;99.90
36990;DHT22;22898;52.102;5.776;2024-03-08T07:39:47;7.30;99.90
36990;DHT22;22898;52.102;5.776;2024-03-08T07:42:12;7.30;99.90
36990;DHT22;22898;52.102;5.776;2024-03-08T07:44:38;7.30;99.90
36990;DHT22;22898;52.102;5.776;2024-03-08T07:47:04;7.30;99.90
36990;DHT22;22898;52.102;5.776;2024-03-08T07:49:30;7.20;99.90
36990;DHT22;22898;52.102;5.776;2024-03-08T07:51:56;7.00;99.90
36990;DHT22;22898;52.102;5.776;2024-03-08T07:54:23;6.90;99.90
36990;DHT22;22898;52.102;5.776;2024-03-08T07:56:49;6.70;99.90
36990;DHT22;22898;52.102;5.776;2024-03-08T07:59:16;6.90;99.90
36990;DHT22;22898;52.102;5.776;2024-03-08T08:01:42;7.10;99.90
36990;DHT22;22898;52.102;5.776;2024-03-08T08:04:09;6.70;99.90
36990;DHT22;22898;52.102;5.776;2024-03-08T08:06:38;7.30;99.90
36990;DHT22;22898;52.102;5.776;2024-03-08T08:09:06;7.10;99.90
36990;DHT22;22898;52.102;5.776;2024-03-08T08:11:35;7.40;99.90
36990;DHT22;22898;52.102;5.776;2024-03-08T08:14:00;7.40;99.90
36990;DHT22;22898;52.102;5.776;2024-03-08T08:16:26;7.60;99.90
36990;DHT22;22898;52.102;5.776;2024-03-08T08:18:52;7.90;99.90
36990;DHT22;22898;52.102;5.776;2024-03-08T08:21:18;8.00;99.90
36990;DHT22;22898;52.102;5.776;2024-03-08T08:23:44;8.30;99.90
36990;DHT22;22898;52.102;5.776;2024-03-08T08:26:10;8.60;99.90
36990;DHT22;22898;52.102;5.776;2024-03-08T08:28:36;8.60;99.90
36990;DHT22;22898;52.102;5.776;2024-03-08T08:31:02;8.50;99.90
36990;DHT22;22898;52.102;5.776;2024-03-08T08:33:29;8.40;99.90
36990;DHT22;22898;52.102;5.776;2024-03-08T08:35:55;8.50;99.90
36990;DHT22;22898;52.102;5.776;2024-03-08T08:38:21;8.30;99.90
36990;DHT22;22898;52.102;5.776;2024-03-08T08:40:48;8.20;99.90
36990;DHT22;22898;52.102;5.776;2024-03-08T08:43:14;8.40;99.90
36990;DHT22;22898;52.102;5.776;2024-03-08T08:45:39;8.40;99.90
36990;DHT22;22898;52.102;5.776;2024-03-08T08:48:06;8.60;99.90
36990;DHT22;22898;52.102;5.776;2024-03-08T08:50:32;8.70;99.90
36990;DHT22;22898;52.102;5.776;2024-03-08T08:52:57;8.90;99.90
36990;DHT22;22898;52.102;5.776;2024-03-08T08:55:23;9.10;99.90
36990;DHT22;22898;52.102;5.776;2024-03-08T08:57:52;9.20;99.90
36990;DHT22;22898;52.102;5.776;2024-03-08T09:00:19;8.70;99.90
36990;DHT22;22898;52.102;5.776;2024-03-08T09:02:46;8.30;99.90
36990;DHT22;22898;52.102;5.776;2024-03-08T09:05:12;8.50;99.90
36990;DHT22;22898;52.102;5.776;2024-03-08T09:07:42;8.70;99.90
36990;DHT22;22898;52.102;5.776;2024-03-08T09:10:09;8.70;99.90
36990;DHT22;22898;52.102;5.776;2024-03-08T09:12:40;8.90;99.90
36990;DHT22;22898;52.102;5.776;2024-03-08T09:15:06;9.50;99.90
36990;DHT22;22898;52.102;5.776;2024-03-08T09:17:38;10.00;99.90
36990;DHT22;22898;52.102;5.776;2024-03-08T09:20:06;10.30;99.90
36990;DHT22;22898;52.102;5.776;2024-03-08T09:22:32;10.40;99.90
36990;DHT22;22898;52.102;5.776;2024-03-08T09:24:57;10.00;99.90
36990;DHT22;22898;52.102;5.776;2024-03-08T09:27:23;9.40;99.90
36990;DHT22;22898;52.102;5.776;2024-03-08T09:29:49;9.60;99.90
36990;DHT22;22898;52.102;5.776;2024-03-08T09:32:14;10.00;99.90
36990;DHT22;22898;52.102;5.776;2024-03-08T09:34:40;10.00;99.90
36990;DHT22;22898;52.102;5.776;2024-03-08T09:37:06;10.00;99.90
36990;DHT22;22898;52.102;5.776;2024-03-08T09:39:32;10.30;99.90
36990;DHT22;22898;52.102;5.776;2024-03-08T09:41:58;10.60;99.90
36990;DHT22;22898;52.102;5.776;2024-03-08T09:44:24;10.60;99.90
36990;DHT22;22898;52.102;5.776;2024-03-08T09:46:51;10.20;99.90
36990;DHT22;22898;52.102;5.776;2024-03-08T09:49:19;10.10;99.90
36990;DHT22;22898;52.102;5.776;2024-03-08T09:51:46;10.40;99.90
36990;DHT22;22898;52.102;5.776;2024-03-08T09:54:12;10.70;99.90
36990;DHT22;22898;52.102;5.776;2024-03-08T09:56:39;10.60;99.90
36990;DHT22;22898;52.102;5.776;2024-03-08T09:59:07;10.50;99.90
36990;DHT22;22898;52.102;5.776;2024-03-08T10:01:51;10.50;99.90
36990;DHT22;22898;52.102;5.776;2024-03-08T10:04:22;10.40;99.90
36990;DHT22;22898;52.102;5.776;2024-03-08T10:06:47;10.70;99.90
36990;DHT22;22898;52.102;5.776;2024-03-08T10:09:14;11.20;99.90
36990;DHT22;22898;52.102;5.776;2024-03-08T10:11:42;11.30;99.90
36990;DHT22;22898;52.102;5.776;2024-03-08T10:14:09;11.40;99.90
36990;DHT22;22898;52.102;5.776;2024-03-08T10:16:36;11.40;99.90
36990;DHT22;22898;52.102;5.776;2024-03-08T10:19:01;11.20;99.90
36990;DHT22;22898;52.102;5.776;2024-03-08T10:21:28;11.00;99.90
36990;DHT22;22898;52.102;5.776;2024-03-08T10:23:54;11.10;99.90
36990;DHT22;22898;52.102;5.776;2024-03-08T10:26:21;11.40;99.90
36990;DHT22;22898;52.102;5.776;2024-03-08T10:28:51;11.20;99.90
36990;DHT22;22898;52.102;5.776;2024-03-08T10:31:18;11.10;99.90
36990;DHT22;22898;52.102;5.776;2024-03-08T10:33:45;11.20;99.90
36990;DHT22;22898;52.102;5.776;2024-03-08T10:36:13;11.30;99.90
36990;DHT22;22898;52.102;5.776;2024-03-08T10:38:40;11.50;99.90
36990;DHT22;22898;52.102;5.776;2024-03-08T10:41:07;11.50;99.90
36990;DHT22;22898;52.102;5.776;2024-03-08T10:44:02;11.60;99.90
36990;DHT22;22898;52.102;5.776;2024-03-08T10:47:02;11.90;99.90
36990;DHT22;22898;52.102;5.776;2024-03-08T10:49:32;12.00;99.90
36990;DHT22;22898;52.102;5.776;2024-03-08T10:52:03;12.00;99.90
36990;DHT22;22898;52.102;5.776;2024-03-08T10:54:30;11.80;99.90
36990;DHT22;22898;52.102;5.776;2024-03-08T10:56:57;11.70;99.90
36990;DHT22;22898;52.102;5.776;2024-03-08T10:59:25;11.60;99.90
36990;DHT22;22898;52.102;5.776;2024-03-08T11:01:52;11.60;99.90
36990;DHT22;22898;52.102;5.776;2024-03-08T11:04:18;12.10;99.90
36990;DHT22;22898;52.102;5.776;2024-03-08T11:06:48;12.30;99.90
36990;DHT22;22898;52.102;5.776;2024-03-08T11:09:31;12.30;99.90
36990;DHT22;22898;52.102;5.776;2024-03-08T11:14:48;12.00;99.90
36990;DHT22;22898;52.102;5.776;2024-03-08T11:20:17;12.80;99.90
36990;DHT22;22898;52.102;5.776;2024-03-08T11:22:54;12.90;98.70
36990;DHT22;22898;52.102;5.776;2024-03-08T11:25:40;12.00;99.40
36990;DHT22;22898;52.102;5.776;2024-03-08T11:33:30;12.50;99.70
36990;DHT22;22898;52.102;5.776;2024-03-08T11:38:30;12.50;99.60
36990;DHT22;22898;52.102;5.776;2024-03-08T11:40:57;12.60;99.30
36990;DHT22;22898;52.102;5.776;2024-03-08T11:43:22;13.00;98.60
36990;DHT22;22898;52.102;5.776;2024-03-08T11:45:48;12.90;97.90
36990;DHT22;22898;52.102;5.776;2024-03-08T11:48:14;12.50;98.70
36990;DHT22;22898;52.102;5.776;2024-03-08T11:50:39;12.60;98.50
36990;DHT22;22898;52.102;5.776;2024-03-08T11:53:05;12.70;98.60
36990;DHT22;22898;52.102;5.776;2024-03-08T11:55:31;12.40;98.70
36990;DHT22;22898;52.102;5.776;2024-03-08T11:58:05;12.40;99.20
36990;DHT22;22898;52.102;5.776;2024-03-08T12:00:31;12.40;98.50
36990;DHT22;22898;52.102;5.776;2024-03-08T12:03:07;12.30;97.60
36990;DHT22;22898;52.102;5.776;2024-03-08T12:05:35;12.00;98.50
36990;DHT22;22898;52.102;5.776;2024-03-08T12:08:02;11.80;99.20
36990;DHT22;22898;52.102;5.776;2024-03-08T12:10:28;11.80;98.80
36990;DHT22;22898;52.102;5.776;2024-03-08T12:12:56;11.80;98.20
36990;DHT22;22898;52.102;5.776;2024-03-08T12:15:25;11.80;99.00
36990;DHT22;22898;52.102;5.776;2024-03-08T12:17:53;12.00;99.70
36990;DHT22;22898;52.102;5.776;2024-03-08T12:20:21;12.60;99.40
36990;DHT22;22898;52.102;5.776;2024-03-08T12:22:54;12.40;98.80
36990;DHT22;22898;52.102;5.776;2024-03-08T12:25:30;12.50;98.40
36990;DHT22;22898;52.102;5.776;2024-03-08T12:27:56;12.90;98.30
36990;DHT22;22898;52.102;5.776;2024-03-08T12:30:24;13.30;97.50
36990;DHT22;22898;52.102;5.776;2024-03-08T12:32:59;13.50;97.40
36990;DHT22;22898;52.102;5.776;2024-03-08T12:35:29;13.20;97.60
36990;DHT22;22898;52.102;5.776;2024-03-08T12:37:57;13.20;96.90
36990;DHT22;22898;52.102;5.776;2024-03-08T12:40:27;13.10;97.10
36990;DHT22;22898;52.102;5.776;2024-03-08T12:43:00;13.30;97.30
36990;DHT22;22898;52.102;5.776;2024-03-08T12:45:26;13.70;97.10
36990;DHT22;22898;52.102;5.776;2024-03-08T12:47:53;13.80;97.10
36990;DHT22;22898;52.102;5.776;2024-03-08T12:50:19;13.70;97.00
36990;DHT22;22898;52.102;5.776;2024-03-08T12:52:45;13.30;96.60
36990;DHT22;22898;52.102;5.776;2024-03-08T12:55:11;12.80;97.20
36990;DHT22;22898;52.102;5.776;2024-03-08T12:57:38;12.60;98.00
36990;DHT22;22898;52.102;5.776;2024-03-08T13:00:04;13.10;98.00
36990;DHT22;22898;52.102;5.776;2024-03-08T13:02:30;13.20;97.90
36990;DHT22;22898;52.102;5.776;2024-03-08T13:04:59;13.70;96.80
36990;DHT22;22898;52.102;5.776;2024-03-08T13:07:25;13.60;96.30
36990;DHT22;22898;52.102;5.776;2024-03-08T13:09:54;13.20;97.40
36990;DHT22;22898;52.102;5.776;2024-03-08T13:12:21;12.90;96.90
36990;DHT22;22898;52.102;5.776;2024-03-08T13:14:47;12.80;97.10
36990;DHT22;22898;52.102;5.776;2024-03-08T13:17:14;13.00;96.80
36990;DHT22;22898;52.102;5.776;2024-03-08T13:19:40;12.90;96.80
36990;DHT22;22898;52.102;5.776;2024-03-08T13:22:08;13.00;96.10
36990;DHT22;22898;52.102;5.776;2024-03-08T13:24:39;12.90;96.60
36990;DHT22;22898;52.102;5.776;2024-03-08T13:27:09;13.10;97.30
36990;DHT22;22898;52.102;5.776;2024-03-08T13:29:49;13.10;95.90
36990;DHT22;22898;52.102;5.776;2024-03-08T13:32:15;13.30;96.90
36990;DHT22;22898;52.102;5.776;2024-03-08T13:34:44;13.10;96.80
36990;DHT22;22898;52.102;5.776;2024-03-08T13:37:13;13.40;96.10
36990;DHT22;22898;52.102;5.776;2024-03-08T13:39:41;13.00;95.40
36990;DHT22;22898;52.102;5.776;2024-03-08T13:42:18;13.20;96.30
36990;DHT22;22898;52.102;5.776;2024-03-08T13:44:45;13.10;97.20
36990;DHT22;22898;52.102;5.776;2024-03-08T13:47:13;13.10;97.10
36990;DHT22;22898;52.102;5.776;2024-03-08T13:49:39;13.00;96.90
36990;DHT22;22898;52.102;5.776;2024-03-08T13:52:05;13.10;97.10
36990;DHT22;22898;52.102;5.776;2024-03-08T13:54:31;13.80;96.90
36990;DHT22;22898;52.102;5.776;2024-03-08T13:56:58;13.80;95.00
36990;DHT22;22898;52.102;5.776;2024-03-08T13:59:24;13.40;95.70
36990;DHT22;22898;52.102;5.776;2024-03-08T14:01:50;13.30;96.60
36990;DHT22;22898;52.102;5.776;2024-03-08T14:04:16;13.70;96.60
36990;DHT22;22898;52.102;5.776;2024-03-08T14:06:44;14.10;96.30
36990;DHT22;22898;52.102;5.776;2024-03-08T14:09:11;14.20;95.90
36990;DHT22;22898;52.102;5.776;2024-03-08T14:11:43;14.40;95.60
36990;DHT22;22898;52.102;5.776;2024-03-08T14:14:10;14.50;95.80
36990;DHT22;22898;52.102;5.776;2024-03-08T14:16:38;14.50;94.50
36990;DHT22;22898;52.102;5.776;2024-03-08T14:19:04;14.10;95.20
36990;DHT22;22898;52.102;5.776;2024-03-08T14:21:31;13.50;96.00
36990;DHT22;22898;52.102;5.776;2024-03-08T14:23:57;13.60;95.90
36990;DHT22;22898;52.102;5.776;2024-03-08T14:26:23;13.60;96.10
36990;DHT22;22898;52.102;5.776;2024-03-08T14:28:48;13.80;96.10
36990;DHT22;22898;52.102;5.776;2024-03-08T14:31:17;13.80;95.10
36990;DHT22;22898;52.102;5.776;2024-03-08T14:33:45;13.50;95.30
36990;DHT22;22898;52.102;5.776;2024-03-08T14:36:15;13.10;95.60
36990;DHT22;22898;52.102;5.776;2024-03-08T14:38:43;13.40;96.10
36990;DHT22;22898;52.102;5.776;2024-03-08T14:41:08;13.20;96.80
36990;DHT22;22898;52.102;5.776;2024-03-08T14:43:34;13.60;95.60
36990;DHT22;22898;52.102;5.776;2024-03-08T14:46:00;14.20;95.40
36990;DHT22;22898;52.102;5.776;2024-03-08T14:48:25;14.20;95.20
36990;DHT22;22898;52.102;5.776;2024-03-08T14:50:51;14.50;94.60
36990;DHT22;22898;52.102;5.776;2024-03-08T14:53:17;14.50;95.00
36990;DHT22;22898;52.102;5.776;2024-03-08T14:55:43;14.40;94.60
36990;DHT22;22898;52.102;5.776;2024-03-08T14:58:12;13.70;95.10
36990;DHT22;22898;52.102;5.776;2024-03-08T15:00:38;13.70;95.60
36990;DHT22;22898;52.102;5.776;2024-03-08T15:03:07;13.60;95.90
36990;DHT22;22898;52.102;5.776;2024-03-08T15:05:35;13.80;95.60
36990;DHT22;22898;52.102;5.776;2024-03-08T15:08:06;14.10;95.40
36990;DHT22;22898;52.102;5.776;2024-03-08T15:10:35;13.80;94.70
36990;DHT22;22898;52.102;5.776;2024-03-08T15:13:01;13.60;95.40
36990;DHT22;22898;52.102;5.776;2024-03-08T15:15:28;13.40;95.40
36990;DHT22;22898;52.102;5.776;2024-03-08T15:17:55;13.70;95.70
36990;DHT22;22898;52.102;5.776;2024-03-08T15:20:23;13.40;95.60
36990;DHT22;22898;52.102;5.776;2024-03-08T15:22:54;13.40;95.90
36990;DHT22;22898;52.102;5.776;2024-03-08T15:25:24;13.00;95.80
36990;DHT22;22898;52.102;5.776;2024-03-08T15:27:53;13.10;96.10
36990;DHT22;22898;52.102;5.776;2024-03-08T15:30:20;13.40;95.70
36990;DHT22;22898;52.102;5.776;2024-03-08T15:32:48;13.80;95.70
36990;DHT22;22898;52.102;5.776;2024-03-08T15:35:16;14.20;95.00
36990;DHT22;22898;52.102;5.776;2024-03-08T15:37:43;14.20;95.50
36990;DHT22;22898;52.102;5.776;2024-03-08T15:40:12;14.10;94.40
36990;DHT22;22898;52.102;5.776;2024-03-08T15:42:57;13.80;95.10
36990;DHT22;22898;52.102;5.776;2024-03-08T15:45:24;13.50;95.50
36990;DHT22;22898;52.102;5.776;2024-03-08T15:47:50;13.50;95.30
36990;DHT22;22898;52.102;5.776;2024-03-08T15:50:16;13.40;95.30
36990;DHT22;22898;52.102;5.776;2024-03-08T15:52:45;14.00;94.70
36990;DHT22;22898;52.102;5.776;2024-03-08T15:55:19;13.80;94.50